x

Ilm3 - 27 Miles Se Of Wrightsville Beach, Nc (41037) Weather Station

6:00am - Mon 22nd Dec 2014 All times are EST. -5 hours from GMT.

  • Wind
    20mph, 25mph gusts
  • Sea Temp 62°f
  • Air Temp 53°f
  • Sea Pressure 1017mb
  • Ilm3 - 27 Miles Se Of Wrightsville Beach, Nc
  • Ilm3 - 27 Miles Se Of Wrightsville Beach, Nc

More Historic Weather Station data

Upgrade to MSW Pro to gain access to the past 30 days of data for over 8000 Wavebouys and Weather Stations around the globe.

Join Pro

Comparision Forecast

View Surf forecast
   
Mon 12/22 6:00am 20 25 mph 1017mb 62f 53f
5:00am 22 27 mph 1016.7mb 62f 54f
4:00am 20 25 mph 1018.7mb 62f 54f
3:00am 22 29 mph 1018.6mb 62f 53f
2:00am 25 29 mph 1019.8mb 62f 52f
1:00am 20 25 mph 1020mb 62f 51f
12:00am 22 29 mph 1020.4mb 62f 51f
Sun 12/21 11:00pm 27 31 mph 1022mb 62f 50f
10:00pm 22 27 mph 1022mb 62f 50f
9:00pm 22 29 mph 1022.6mb 62f 50f
8:00pm 22 25 mph 1022.5mb 62f 50f
7:00pm 22 27 mph 1023.2mb 62f 51f
6:00pm 22 27 mph 1022.9mb 62f 50f
5:00pm 22 27 mph 1023.1mb 62f 49f
4:00pm 22 25 mph 1022.7mb 62f 49f
3:00pm 22 25 mph 1023.7mb 62f 49f
2:00pm 20 25 mph 1023.5mb 62f 48f
1:00pm 27 29 mph 1023.1mb 62f 48f
12:00pm 25 27 mph 1024.2mb 62f 47f
11:00am 22 27 mph 1024.8mb 62f 48f
10:00am 22 25 mph 1024.7mb 62f 48f
9:00am 22 27 mph 1024.8mb 62f 48f
8:00am 22 25 mph 1024.3mb 63f 49f
7:00am 20 25 mph 1024.3mb 63f 49f
6:00am 20 22 mph 1023.3mb 63f 49f
5:00am 20 25 mph 1023mb 63f 49f
4:00am 18 22 mph 1023.8mb 63f 50f
3:00am 20 25 mph 1024mb 63f 49f
2:00am 18 22 mph 1024.2mb 62f 49f
1:00am 18 20 mph 1024mb 61f 48f
12:00am 18 22 mph 1023.7mb 61f 48f
Sat 12/20 11:00pm 16 20 mph 1024.7mb 61f 49f
10:00pm 18 20 mph 1024.6mb 61f 49f
9:00pm 18 22 mph 1024.9mb 61f 49f
8:00pm 18 20 mph 1025mb 61f 48f
7:00pm 18 20 mph 1024.8mb 61f 46f
6:00pm 18 22 mph 1024.3mb 61f 46f
5:00pm 16 20 mph 1023.1mb 62f 45f
4:00pm 16 22 mph 1022.2mb 62f 46f
3:00pm 18 22 mph 1023.8mb 62f 47f
2:00pm 16 20 mph 1023.7mb 62f 46f
1:00pm 20 22 mph 1023.5mb 62f 47f
12:00pm 18 20 mph 1024.4mb 62f 47f
11:00am 16 18 mph 1024.5mb 62f 49f
10:00am 18 22 mph 1024.1mb 62f 50f
9:00am 16 20 mph 1024.2mb 62f 50f
8:00am 18 20 mph 1023.5mb 63f 50f
7:00am 13 16 mph 1023.8mb 64f 50f
6:00am 13 18 mph 1023.1mb 64f 51f
5:00am 11 13 mph 1023.6mb 65f 51f
4:00am 11 13 mph 1023.1mb 65f 51f
3:00am 11 13 mph 1023.4mb 65f 51f
2:00am 11 13 mph 1023.4mb 66f 51f
1:00am 11 13 mph 1023.4mb 65f 50f
12:00am 13 16 mph 1023mb 65f 51f
Fri 12/19 11:00pm 13 16 mph 1023mb 66f 51f
10:00pm 11 13 mph 1022.6mb 66f 51f
9:00pm 11 13 mph 1022.9mb 66f 52f
8:00pm 9 11 mph 1022.4mb 66f 52f
7:00pm 9 11 mph 1022.2mb 66f 51f
6:00pm 9
mph
1022mb 66f 51f
5:00pm 7 9 mph 1021.2mb 65f 51f
4:00pm 4 7 mph 1021.1mb 65f 50f
3:00pm 4 7 mph 1020.9mb 65f 49f
2:00pm 7 9 mph 1020.6mb 64f 49f
1:00pm 9 11 mph 1021.1mb 64f 49f
12:00pm 9 11 mph 1021.5mb 64f 49f
11:00am 9 13 mph 1022.3mb 64f 50f
10:00am 13 18 mph 1022.6mb 64f 51f
9:00am 11 13 mph 1022mb 65f 50f
8:00am 11 16 mph 1021mb 65f 50f
7:00am 11 16 mph 1020.5mb 66f 50f
6:00am 7 9 mph 1020mb 66f 51f
5:00am 4 7 mph 1019.3mb 66f 51f
4:00am 4
mph
1019.5mb 66f 51f
3:00am 4
mph
1019.4mb 65f 51f
2:00am 2
mph
1019.7mb 65f 51f
1:00am 7 9 mph 1019.9mb 65f 51f
12:00am 7
mph
1020.3mb 65f 51f
Thu 12/18 11:00pm 4 7 mph 1020.7mb 65f 51f
10:00pm 4 9 mph 1020mb 65f 51f
9:00pm 2 4 mph 1020.1mb 65f 51f
8:00pm 4 7 mph 1019.9mb 65f 51f
7:00pm 4 7 mph 1020mb 65f 51f
6:00pm 7 9 mph 1019.7mb 65f 51f
5:00pm 4 7 mph 1019.8mb 64f 50f
4:00pm 7 9 mph 1019.7mb 64f 49f
3:00pm 9 11 mph 1020.1mb 63f 49f
2:00pm 11 13 mph 1020.1mb 63f 50f
1:00pm 9 11 mph 1020.6mb 62f 49f